createdAt,value
2022-09-28T03:41:18.271Z,99198.00
2022-09-28T03:44:24.463Z,99198.00
2022-09-28T03:47:27.341Z,99207.56
2022-09-28T03:50:33.162Z,99194.44
2022-09-28T03:53:36.764Z,99203.16
2022-09-28T03:56:40.598Z,99209.25
2022-09-28T03:59:43.176Z,99202.22
2022-09-28T04:02:46.252Z,99200.25
2022-09-28T04:05:51.067Z,99203.72
2022-09-28T04:08:53.844Z,99209.75
2022-09-28T04:12:03.836Z,99213.22
2022-09-28T04:15:08.259Z,99208.69
2022-09-28T04:18:12.590Z,99204.31
2022-09-28T04:21:18.075Z,99205.22
2022-09-28T04:24:21.523Z,99212.25
2022-09-28T04:27:42.628Z,99205.16
2022-09-28T04:30:47.372Z,99202.44
2022-09-28T04:33:49.983Z,99208.34
2022-09-28T04:36:52.819Z,99209.00
2022-09-28T04:39:55.495Z,99206.28
2022-09-28T04:42:58.417Z,99203.75
2022-09-28T04:46:03.010Z,99200.56
2022-09-28T04:49:07.078Z,99198.19
2022-09-28T04:52:17.310Z,99203.44
2022-09-28T04:55:21.319Z,99201.88
2022-09-28T04:58:23.988Z,99198.66
2022-09-28T05:01:27.292Z,99206.91
2022-09-28T05:04:31.203Z,99203.53
2022-09-28T05:07:35.588Z,99209.50
2022-09-28T05:10:41.381Z,99208.97
2022-09-28T05:13:45.710Z,99218.84
2022-09-28T05:16:49.176Z,99231.19
2022-09-28T05:19:53.460Z,99222.56
2022-09-28T05:22:56.357Z,99225.47
2022-09-28T05:26:02.111Z,99227.25
2022-09-28T05:29:05.069Z,99220.38
2022-09-28T05:32:09.092Z,99224.69
2022-09-28T05:35:12.039Z,99213.94
2022-09-28T05:38:15.106Z,99215.87
2022-09-28T05:41:19.312Z,99218.06
2022-09-28T05:44:22.279Z,99228.06
2022-09-28T05:47:26.424Z,99221.19
2022-09-28T05:50:31.602Z,99232.91
2022-09-28T05:53:34.257Z,99227.03
2022-09-28T05:56:37.138Z,99229.44
2022-09-28T05:59:42.228Z,99229.19
2022-09-28T06:02:56.117Z,99225.34
2022-09-28T06:06:02.461Z,99210.13
2022-09-28T06:09:05.350Z,99207.06
2022-09-28T06:12:09.587Z,99198.97
2022-09-28T06:15:13.279Z,99203.28
2022-09-28T06:18:16.204Z,99204.75
2022-09-28T06:21:18.880Z,99203.06
2022-09-28T06:24:21.874Z,99207.16
2022-09-28T06:27:24.731Z,99209.53
2022-09-28T06:30:28.566Z,99204.00
2022-09-28T06:33:31.264Z,99209.97
2022-09-28T06:36:34.159Z,99217.53
2022-09-28T06:39:38.133Z,99212.91
2022-09-28T06:42:41.277Z,99216.19
2022-09-28T06:45:53.597Z,99211.78
2022-09-28T06:48:56.908Z,99214.63
2022-09-28T06:52:02.262Z,99214.41
2022-09-28T06:55:08.421Z,99221.03
2022-09-28T06:58:15.084Z,99230.66
2022-09-28T07:01:18.301Z,99240.63
2022-09-28T07:04:21.349Z,99227.22
2022-09-28T07:07:29.560Z,99231.53
2022-09-28T07:10:32.970Z,99224.69
2022-09-28T07:13:49.832Z,99233.78
2022-09-28T07:17:12.370Z,99227.88
2022-09-28T07:20:19.345Z,99228.94
2022-09-28T07:23:23.351Z,99221.81
2022-09-28T07:26:33.348Z,99219.50
2022-09-28T07:29:36.294Z,99225.38
2022-09-28T07:32:41.193Z,99223.75
2022-09-28T07:35:54.077Z,99216.19
2022-09-28T07:38:59.618Z,99216.91
2022-09-28T07:42:03.451Z,99220.84
2022-09-28T07:45:07.366Z,99224.84
2022-09-28T07:51:13.019Z,99215.13
2022-09-28T07:54:15.528Z,99212.88
2022-09-28T07:57:20.531Z,99222.47
2022-09-28T08:00:29.803Z,99222.59
2022-09-28T08:03:35.539Z,99219.66
2022-09-28T08:06:40.472Z,99219.94
2022-09-28T08:09:45.465Z,99222.19
2022-09-28T08:13:01.965Z,99229.13
2022-09-28T08:16:08.434Z,99229.69
2022-09-28T08:19:11.546Z,99224.94
2022-09-28T08:22:15.606Z,99228.44
2022-09-28T08:25:18.480Z,99215.69
2022-09-28T08:28:23.796Z,99209.00
2022-09-28T08:31:26.606Z,99199.63
2022-09-28T08:34:30.035Z,99191.34
2022-09-28T08:37:32.832Z,99189.16
2022-09-28T08:40:49.685Z,99183.28
2022-09-28T08:44:24.092Z,99184.22
2022-09-28T08:47:53.022Z,99191.81
2022-09-28T08:51:03.001Z,99205.94
2022-09-28T08:54:12.666Z,99208.81
2022-09-28T08:57:55.359Z,99205.88
2022-09-28T09:00:59.324Z,99213.34
2022-09-28T09:04:04.316Z,99212.06
2022-09-28T09:07:14.088Z,99201.56
2022-09-28T09:10:58.222Z,99204.66
2022-09-28T09:14:09.631Z,99204.06
2022-09-28T09:17:12.460Z,99215.13
2022-09-28T09:20:20.510Z,99194.59
2022-09-28T09:23:38.405Z,99201.88
2022-09-28T09:26:41.664Z,99204.94
2022-09-28T09:29:54.840Z,99200.59
2022-09-28T09:33:35.093Z,99201.00
2022-09-28T09:36:59.634Z,99198.75
2022-09-28T09:40:33.588Z,99198.06
2022-09-28T09:43:50.723Z,99190.06
2022-09-28T09:47:08.170Z,99187.94
2022-09-28T09:50:30.917Z,99185.81
2022-09-28T09:53:42.030Z,99188.78
2022-09-28T09:56:59.732Z,99195.19
2022-09-28T10:00:05.428Z,99191.75
2022-09-28T10:03:29.317Z,99181.66
2022-09-28T10:06:37.654Z,99186.06
2022-09-28T10:09:45.948Z,99198.78
2022-09-28T10:12:51.361Z,99191.09
2022-09-28T10:15:56.376Z,99196.03
2022-09-28T10:19:00.803Z,99190.97
2022-09-28T10:22:16.061Z,99199.13
2022-09-28T10:25:20.445Z,99201.34
2022-09-28T10:28:40.691Z,99188.59
2022-09-28T10:32:02.929Z,99177.31
2022-09-28T10:35:25.304Z,99200.16
2022-09-28T10:38:31.051Z,99184.91
2022-09-28T10:41:34.018Z,99196.19
2022-09-28T10:45:25.171Z,99201.13
2022-09-28T10:48:30.154Z,99193.94
2022-09-28T10:51:48.058Z,99200.37
2022-09-28T10:54:53.953Z,99202.91
2022-09-28T10:57:57.332Z,99189.12
2022-09-28T11:01:06.384Z,99193.84
2022-09-28T11:04:20.100Z,99180.97
2022-09-28T11:07:32.232Z,99173.69
2022-09-28T11:10:36.593Z,99178.34
2022-09-28T11:13:48.003Z,99169.50
2022-09-28T11:17:29.667Z,99178.94
2022-09-28T11:20:35.578Z,99169.78
2022-09-28T11:23:38.974Z,99155.16
2022-09-28T11:26:48.038Z,99165.03
2022-09-28T11:30:00.885Z,99160.53
2022-09-28T11:33:11.878Z,99152.88
2022-09-28T11:36:17.164Z,99150.38
2022-09-28T11:40:01.739Z,99145.22
2022-09-28T11:43:31.249Z,99155.41
2022-09-28T11:46:46.283Z,99150.25
2022-09-28T11:50:22.885Z,99152.00
2022-09-28T11:53:43.006Z,99167.25
2022-09-28T11:56:50.476Z,99140.88
2022-09-28T11:59:59.100Z,99138.34
2022-09-28T12:03:06.054Z,99130.50
2022-09-28T12:06:19.826Z,99120.44
2022-09-28T12:09:35.909Z,99124.75
2022-09-28T12:12:56.820Z,99123.09
2022-09-28T12:17:00.543Z,99112.59
2022-09-28T12:19:48.793Z,99117.41
2022-09-28T12:22:59.748Z,99108.03
2022-09-28T12:26:06.178Z,99108.31
2022-09-28T12:29:15.607Z,99105.44
2022-09-28T12:32:39.271Z,99107.31
2022-09-28T12:35:47.908Z,99098.78
2022-09-28T12:39:57.621Z,99099.38
2022-09-28T12:43:33.458Z,99086.84
2022-09-28T12:46:48.933Z,99090.78
2022-09-28T12:53:57.813Z,99078.50
2022-09-28T12:57:34.563Z,99073.44
2022-09-28T13:00:53.380Z,99078.91
2022-09-28T13:04:25.929Z,99080.06
2022-09-28T13:07:56.574Z,99086.09
2022-09-28T13:11:20.920Z,99079.94
2022-09-28T13:15:08.797Z,99078.09
2022-09-28T13:18:31.586Z,99079.66
2022-09-28T13:22:00.128Z,99067.19
2022-09-28T13:25:10.428Z,99057.97
2022-09-28T13:28:16.752Z,99058.47
2022-09-28T13:31:22.828Z,99055.41
2022-09-28T13:34:28.871Z,99056.81
2022-09-28T13:37:31.807Z,99059.59
2022-09-28T13:41:03.690Z,99049.56
2022-09-28T13:44:20.275Z,99041.37
2022-09-28T13:47:51.633Z,99045.53
2022-09-28T13:51:19.181Z,99048.13
2022-09-28T13:54:58.100Z,99038.63
2022-09-28T13:58:05.551Z,99049.22
2022-09-28T14:01:17.595Z,99031.06
2022-09-28T14:04:23.541Z,99031.06
2022-09-28T14:07:58.494Z,99040.41
2022-09-28T14:11:34.395Z,99028.13
2022-09-28T14:14:49.160Z,99035.91
2022-09-28T14:18:13.963Z,99046.00
2022-09-28T14:21:53.890Z,99058.63
2022-09-28T14:25:15.344Z,99041.13
2022-09-28T14:28:37.896Z,99030.56
2022-09-28T14:31:43.265Z,99027.78
2022-09-28T14:34:55.152Z,99018.44
2022-09-28T14:38:25.100Z,99010.56
2022-09-28T14:41:38.211Z,99008.88
2022-09-28T14:45:06.332Z,99007.66
2022-09-28T14:48:19.302Z,99003.69
2022-09-28T14:51:26.217Z,99009.41
2022-09-28T14:54:54.236Z,98997.28
2022-09-28T14:57:58.369Z,98996.19
2022-09-28T15:01:12.305Z,98991.34
2022-09-28T15:04:16.701Z,98997.78
2022-09-28T15:07:46.103Z,98985.84
2022-09-28T15:10:50.527Z,98985.28
2022-09-28T15:14:07.153Z,98983.59
2022-09-28T15:17:11.556Z,98988.28
2022-09-28T15:20:24.521Z,98985.78
2022-09-28T15:23:30.139Z,98972.59
2022-09-28T15:26:34.347Z,98970.75
